Time;durP1;ratioP1;P1;durP2;ratioP2;P2;SDS_P1;SDS_P2;PMS_P1;PMS_P2;Temp;Humidity;BMP_temperature;BMP_pressure;BME280_temperature;BME280_humidity;BME280_pressure;Samples;Min_cycle;Max_cycle;Signal;HPM_P1;HPM_P2
2022/01/17 00:00:38;;;;;;;15.50;14.00;;;;;;;4.46;81.59;100103.22;5030278;27;104201;-64
2022/01/17 00:03:09;;;;;;;13.73;12.43;;;;;;;4.71;80.49;100097.38;5053314;27;102979;-64
2022/01/17 00:05:40;;;;;;;13.70;12.40;;;;;;;4.79;79.87;100101.50;5055296;27;102766;-64
2022/01/17 00:08:09;;;;;;;13.63;12.23;;;;;;;3.96;82.19;100117.56;5055630;27;103581;-64
2022/01/17 00:10:37;;;;;;;12.70;11.40;;;;;;;3.73;85.12;100135.53;5050794;27;103184;-66
2022/01/17 00:13:10;;;;;;;12.07;10.98;;;;;;;3.35;86.83;100138.09;5034699;27;102757;-66
2022/01/17 00:15:47;;;;;;;11.30;10.30;;;;;;;3.55;85.98;100143.75;5055665;27;102581;-64
2022/01/17 00:18:29;;;;;;;11.60;10.50;;;;;;;3.51;85.58;100140.34;5038679;27;104004;-64
2022/01/17 00:20:57;;;;;;;13.37;12.07;;;;;;;3.25;87.52;100152.25;5047362;27;103255;-66
2022/01/17 00:23:25;;;;;;;13.18;11.95;;;;;;;3.69;86.68;100149.56;5055317;27;102579;-67
2022/01/17 00:25:53;;;;;;;12.60;11.40;;;;;;;4.27;83.14;100145.59;5032497;27;103949;-66
2022/01/17 00:28:21;;;;;;;13.00;11.80;;;;;;;4.25;82.41;100148.25;5042248;27;104097;-66
2022/01/17 00:30:51;;;;;;;11.32;10.23;;;;;;;4.07;83.72;100156.53;5044508;27;103217;-66
2022/01/17 00:33:19;;;;;;;10.38;9.38;;;;;;;4.20;82.61;100162.34;5051435;27;102885;-66
2022/01/17 00:35:47;;;;;;;10.40;9.32;;;;;;;4.24;83.22;100164.00;5054236;27;102854;-66
2022/01/17 00:38:15;;;;;;;10.70;9.70;;;;;;;4.14;83.50;100157.25;5029290;27;103934;-66
2022/01/17 00:40:44;;;;;;;11.18;10.18;;;;;;;4.22;82.76;100168.41;5044718;27;102975;-66
2022/01/17 00:43:13;;;;;;;12.18;10.98;;;;;;;4.15;84.04;100166.84;5044766;27;102604;-66
2022/01/17 00:45:43;;;;;;;18.20;16.38;;;;;;;4.26;82.86;100170.06;5045982;27;102728;-66
2022/01/17 00:48:13;;;;;;;17.70;16.00;;;;;;;3.96;84.35;100169.00;5045454;27;104117;-65
2022/01/17 00:50:41;;;;;;;16.10;14.50;;;;;;;3.94;85.26;100178.63;5033018;27;104224;-65
2022/01/17 00:53:10;;;;;;;17.38;15.65;;;;;;;3.82;85.87;100171.91;5044823;27;102684;-63
2022/01/17 00:55:39;;;;;;;20.23;18.23;;;;;;;3.60;86.33;100164.56;5051374;27;102710;-65
2022/01/17 00:58:08;;;;;;;19.58;17.67;;;;;;;3.79;85.75;100177.22;5044530;27;103039;-64
2022/01/17 01:00:38;;;;;;;19.40;17.60;;;;;;;3.59;87.77;100176.78;5049053;27;102995;-64
2022/01/17 01:03:06;;;;;;;21.53;19.43;;;;;;;3.58;87.24;100177.69;5053542;27;102981;-64
2022/01/17 01:05:36;;;;;;;21.15;19.13;;;;;;;3.63;86.68;100175.81;5045499;27;103895;-64
2022/01/17 01:08:04;;;;;;;21.40;19.30;;;;;;;3.75;85.13;100180.81;5022569;27;104713;-65
2022/01/17 01:10:33;;;;;;;21.55;19.48;;;;;;;3.88;85.24;100182.25;5046506;27;103204;-64
2022/01/17 01:13:02;;;;;;;21.50;19.40;;;;;;;4.11;83.98;100192.19;5028267;27;102903;-64
2022/01/17 01:15:46;;;;;;;21.83;19.63;;;;;;;3.68;85.48;100194.88;5028411;27;103689;-64
2022/01/17 01:18:17;;;;;;;23.05;20.63;;;;;;;3.85;84.17;100200.59;5035288;27;104453;-64
2022/01/17 01:29:05;;;;;;;22.47;20.13;;;;;;;3.75;83.89;100206.94;5052862;27;104072;-65
2022/01/17 01:31:43;;;;;;;21.23;19.13;;;;;;;4.28;82.57;100207.50;5045038;27;102994;-64
2022/01/17 01:34:12;;;;;;;21.90;19.73;;;;;;;4.21;81.57;100211.16;5025588;27;102736;-64
2022/01/17 01:36:42;;;;;;;21.63;19.40;;;;;;;4.49;81.18;100201.78;5027405;27;103924;-64
2022/01/17 01:39:10;;;;;;;18.83;16.97;;;;;;;4.73;80.33;100195.94;5027827;27;104281;-64
2022/01/17 01:41:43;;;;;;;20.33;18.33;;;;;;;4.54;80.63;100184.19;5045053;27;103186;-64
2022/01/17 01:44:15;;;;;;;21.77;19.58;;;;;;;4.53;80.94;100187.69;5040547;27;103953;-63
2022/01/17 01:46:45;;;;;;;20.45;18.40;;;;;;;4.57;80.65;100191.97;5040656;27;104351;-64
2022/01/17 01:49:15;;;;;;;21.67;19.53;;;;;;;4.56;79.61;100187.63;5061365;27;104079;-64
2022/01/17 01:51:46;;;;;;;18.95;17.15;;;;;;;4.77;80.21;100187.09;5050703;27;103186;-64
2022/01/17 01:54:15;;;;;;;20.35;18.38;;;;;;;4.40;80.51;100175.81;5040603;27;102796;-66
2022/01/17 01:56:45;;;;;;;18.63;16.73;;;;;;;4.65;80.52;100166.47;5030890;27;102930;-66
2022/01/17 01:59:14;;;;;;;20.30;18.27;;;;;;;4.42;81.27;100164.41;5055119;27;103232;-66
2022/01/17 02:01:43;;;;;;;19.67;17.77;;;;;;;4.50;80.85;100162.47;5041339;27;103193;-66
2022/01/17 02:04:15;;;;;;;18.70;16.88;;;;;;;4.68;80.76;100164.63;5045534;27;103062;-67
2022/01/17 02:06:47;;;;;;;20.38;18.25;;;;;;;4.80;79.39;100152.97;5048337;27;102952;-66
2022/01/17 02:09:15;;;;;;;17.25;15.55;;;;;;;5.09;79.18;100153.06;5046406;27;103250;-64
2022/01/17 02:11:43;;;;;;;17.48;15.80;;;;;;;5.00;79.68;100150.69;5034305;27;104287;-64
2022/01/17 02:14:13;;;;;;;18.42;16.60;;;;;;;5.13;79.27;100154.69;5049705;27;102819;-63
2022/01/17 02:16:43;;;;;;;17.70;16.00;;;;;;;5.13;79.06;100153.84;5050670;27;103512;-64
2022/01/17 02:19:12;;;;;;;19.27;17.45;;;;;;;4.98;79.38;100149.00;5046398;27;103667;-64
2022/01/17 02:21:46;;;;;;;17.95;16.25;;;;;;;4.96;79.45;100167.41;5042612;27;103200;-64
2022/01/17 02:24:16;;;;;;;16.77;15.17;;;;;;;5.08;80.01;100160.97;5032000;27;102771;-64
2022/01/17 02:26:45;;;;;;;17.58;15.88;;;;;;;5.19;78.85;100151.88;5048285;27;102667;-65
2022/01/17 02:29:13;;;;;;;17.63;15.93;;;;;;;5.23;78.97;100150.91;5033351;27;104170;-63
2022/01/17 02:31:42;;;;;;;19.07;17.17;;;;;;;5.19;79.40;100151.88;5033223;27;103454;-64
2022/01/17 02:34:11;;;;;;;16.30;14.80;;;;;;;5.30;79.19;100151.63;5044679;27;102873;-66
2022/01/17 02:36:39;;;;;;;18.95;17.10;;;;;;;4.95;79.51;100164.78;5043283;27;104301;-66
2022/01/17 02:39:09;;;;;;;19.42;17.48;;;;;;;4.82;80.94;100172.13;5046020;27;103251;-66
2022/01/17 02:41:40;;;;;;;17.92;16.23;;;;;;;4.96;79.81;100177.88;5061487;27;103672;-66
2022/01/17 02:44:08;;;;;;;21.27;19.17;;;;;;;4.32;82.49;100185.63;5044667;27;103084;-66
2022/01/17 02:46:36;;;;;;;19.70;17.70;;;;;;;4.58;82.37;100185.81;5025755;27;104283;-64
2022/01/17 02:49:06;;;;;;;16.70;15.10;;;;;;;5.03;80.52;100178.53;5026159;27;104127;-64
2022/01/17 02:51:34;;;;;;;19.23;17.30;;;;;;;5.23;79.70;100176.25;5045654;27;103230;-64
2022/01/17 02:54:03;;;;;;;22.30;19.97;;;;;;;4.40;81.96;100183.66;5046327;27;103450;-66
2022/01/17 02:56:32;;;;;;;22.42;20.02;;;;;;;4.47;82.10;100183.47;5049736;27;102746;-66
2022/01/17 02:59:00;;;;;;;23.02;20.58;;;;;;;4.23;82.77;100184.06;5045345;27;103680;-64
2022/01/17 03:01:29;;;;;;;22.58;20.27;;;;;;;3.87;84.08;100184.91;5031513;27;104172;-64
2022/01/17 03:03:58;;;;;;;22.25;19.88;;;;;;;3.87;84.74;100188.38;5047851;27;103124;-64
2022/01/17 03:06:27;;;;;;;22.70;20.50;;;;;;;3.55;86.65;100187.31;5027880;27;103030;-64
2022/01/17 03:08:55;;;;;;;22.48;20.17;;;;;;;3.53;87.13;100199.56;5048889;27;104575;-65
2022/01/17 03:11:26;;;;;;;22.65;20.35;;;;;;;3.71;86.71;100194.81;5047530;27;103147;-64
2022/01/17 03:13:58;;;;;;;22.15;19.95;;;;;;;3.79;86.13;100198.13;5052891;27;102751;-64
2022/01/17 03:16:31;;;;;;;23.10;20.77;;;;;;;3.92;85.60;100189.13;5048632;27;104665;-66
2022/01/17 03:19:03;;;;;;;24.65;22.08;;;;;;;3.75;85.44;100185.16;5033685;27;104183;-66
2022/01/17 03:21:32;;;;;;;26.70;23.50;;;;;;;3.61;87.10;100187.22;5052129;27;103255;-66
2022/01/17 03:24:00;;;;;;;26.20;23.50;;;;;;;3.94;84.52;100187.34;5029554;27;103139;-66
2022/01/17 03:26:30;;;;;;;24.23;21.83;;;;;;;4.18;84.26;100172.00;5034931;27;103005;-66
2022/01/17 03:29:01;;;;;;;22.70;20.50;;;;;;;4.51;82.89;100158.09;5045499;27;103321;-67
2022/01/17 03:31:30;;;;;;;22.65;20.38;;;;;;;4.75;82.32;100160.06;5047294;27;103177;-66
2022/01/17 03:33:58;;;;;;;26.88;24.10;;;;;;;4.32;81.67;100169.91;5045308;27;102705;-67
2022/01/17 03:36:26;;;;;;;24.73;22.23;;;;;;;4.26;83.42;100175.28;5046869;27;102868;-66
2022/01/17 03:38:55;;;;;;;25.00;22.60;;;;;;;4.05;84.12;100172.28;5025588;27;104393;-66
2022/01/17 03:41:24;;;;;;;26.90;24.15;;;;;;;3.87;84.09;100179.69;5033405;27;104176;-66
2022/01/17 03:43:52;;;;;;;27.40;24.57;;;;;;;3.76;84.60;100184.28;5034344;27;102665;-64
2022/01/17 03:46:21;;;;;;;25.35;22.85;;;;;;;4.10;83.89;100191.31;5028796;27;104088;-63
2022/01/17 03:48:49;;;;;;;23.87;21.47;;;;;;;4.38;83.18;100182.84;5029357;27;104231;-64
2022/01/17 03:51:17;;;;;;;20.90;18.85;;;;;;;4.63;81.78;100173.50;5032872;27;102994;-66
2022/01/17 03:53:45;;;;;;;23.02;20.80;;;;;;;4.74;80.41;100186.31;5048959;27;102868;-66
2022/01/17 03:56:13;;;;;;;26.52;23.73;;;;;;;4.21;81.88;100192.84;5046191;27;103553;-66
2022/01/17 03:58:41;;;;;;;24.80;22.40;;;;;;;4.16;84.22;100198.19;5043612;27;103259;-65
2022/01/17 04:01:10;;;;;;;21.83;19.83;;;;;;;4.57;83.02;100190.22;5044002;27;103195;-64
2022/01/17 04:03:40;;;;;;;19.97;18.03;;;;;;;4.78;82.03;100187.94;5040339;27;102850;-66
2022/01/17 04:06:08;;;;;;;22.70;20.40;;;;;;;4.89;81.26;100197.25;5045303;27;103927;-66
2022/01/17 04:08:36;;;;;;;21.38;19.17;;;;;;;4.81;81.94;100199.22;5029592;27;104490;-66
2022/01/17 04:11:04;;;;;;;22.70;20.33;;;;;;;4.89;81.54;100207.72;5055665;27;103265;-66
2022/01/17 04:13:34;;;;;;;22.80;20.40;;;;;;;4.86;80.68;100197.31;5036639;27;103031;-66
2022/01/17 04:16:02;;;;;;;20.80;18.70;;;;;;;5.02;81.05;100182.94;5026409;27;104578;-66
2022/01/17 04:18:32;;;;;;;21.48;19.27;;;;;;;4.86;80.50;100186.84;5024956;27;104131;-66
2022/01/17 04:21:05;;;;;;;22.13;20.02;;;;;;;4.49;84.35;100180.84;5037530;27;103304;-66
2022/01/17 04:23:33;;;;;;;22.02;19.83;;;;;;;4.63;82.78;100176.97;5031932;27;102737;-64
2022/01/17 04:26:01;;;;;;;22.05;19.90;;;;;;;4.41;84.76;100173.16;5044445;27;103809;-64
2022/01/17 04:28:30;;;;;;;23.03;20.63;;;;;;;4.45;83.49;100164.34;5041400;27;103298;-67
2022/01/17 04:30:59;;;;;;;18.10;16.40;;;;;;;4.87;83.09;100167.63;5029937;27;103445;-64
2022/01/17 04:33:27;;;;;;;18.75;17.02;;;;;;;4.96;82.31;100162.16;5055343;27;102876;-65
2022/01/17 04:35:55;;;;;;;20.60;18.60;;;;;;;4.94;82.00;100163.94;5030422;27;103835;-64
2022/01/17 04:38:24;;;;;;;23.20;21.00;;;;;;;4.51;83.91;100179.03;5040846;27;103273;-65
2022/01/17 04:41:01;;;;;;;21.77;19.55;;;;;;;4.32;85.53;100193.47;5053446;27;103178;-64
2022/01/17 04:43:45;;;;;;;19.35;17.45;;;;;;;4.68;83.99;100182.09;5039292;27;102753;-64
2022/01/17 04:46:13;;;;;;;19.02;17.10;;;;;;;4.56;84.30;100187.63;5039197;27;102605;-63
2022/01/17 04:48:41;;;;;;;18.83;17.02;;;;;;;4.53;84.03;100178.09;5039896;27;103540;-63
2022/01/17 04:51:09;;;;;;;18.55;16.75;;;;;;;4.64;84.37;100185.69;5022119;27;103191;-64
2022/01/17 04:53:40;;;;;;;18.83;16.92;;;;;;;4.66;83.73;100191.72;5032104;27;102646;-63
2022/01/17 04:56:08;;;;;;;16.97;15.27;;;;;;;4.78;84.21;100187.94;5042692;27;103833;-63
2022/01/17 04:58:37;;;;;;;18.25;16.45;;;;;;;4.53;84.49;100191.19;5032547;27;103461;-65
2022/01/17 05:01:04;;;;;;;15.73;14.23;;;;;;;4.77;84.28;100194.97;5045685;27;103142;-66
2022/01/17 05:03:33;;;;;;;17.80;15.95;;;;;;;4.51;85.07;100193.00;5025067;27;103644;-68
2022/01/17 05:06:01;;;;;;;15.68;14.07;;;;;;;4.72;84.58;100198.56;5032620;27;102850;-68
2022/01/17 05:08:29;;;;;;;14.07;12.67;;;;;;;4.64;85.75;100206.63;5052558;27;103234;-64
2022/01/17 05:10:58;;;;;;;14.48;12.98;;;;;;;4.72;85.43;100204.66;5045104;27;103681;-68
2022/01/17 05:13:32;;;;;;;13.67;12.33;;;;;;;4.73;84.21;100200.28;5029683;27;102837;-67
2022/01/17 05:16:13;;;;;;;13.95;12.55;;;;;;;4.82;84.27;100186.97;5045264;27;104469;-68
2022/01/17 05:21:27;;;;;;;13.55;12.15;;;;;;;4.77;84.37;100201.97;5050377;27;103210;-68
2022/01/17 05:23:55;;;;;;;14.13;12.57;;;;;;;4.57;84.97;100202.44;5047917;27;102697;-68
2022/01/17 05:26:24;;;;;;;13.63;12.33;;;;;;;4.55;85.12;100198.97;5047634;27;102937;-67
2022/01/17 05:28:52;;;;;;;12.93;11.63;;;;;;;4.48;85.84;100200.03;5049022;27;103776;-68
2022/01/17 05:31:20;;;;;;;13.50;12.20;;;;;;;4.55;85.09;100196.38;5032082;27;103274;-64
2022/01/17 05:33:48;;;;;;;14.00;12.60;;;;;;;4.50;85.17;100196.50;5054025;27;102716;-64
2022/01/17 05:36:16;;;;;;;11.38;10.32;;;;;;;4.86;84.60;100179.00;5052390;27;103849;-65
2022/01/17 05:38:45;;;;;;;11.77;10.57;;;;;;;4.76;85.05;100177.53;5048825;27;104115;-64
2022/01/17 05:41:13;;;;;;;11.00;9.98;;;;;;;4.83;84.86;100184.31;5050703;27;103214;-65
2022/01/17 05:43:42;;;;;;;10.82;9.73;;;;;;;4.75;84.35;100181.03;5032176;27;102743;-65
2022/01/17 05:46:10;;;;;;;10.32;9.32;;;;;;;4.89;83.92;100186.78;5051854;27;103961;-65
2022/01/17 05:48:38;;;;;;;10.20;9.30;;;;;;;4.70;85.07;100182.91;5028610;27;103356;-65
2022/01/17 05:51:09;;;;;;;8.93;8.13;;;;;;;4.96;84.47;100177.88;5021230;27;103215;-66
2022/01/17 05:53:37;;;;;;;9.57;8.65;;;;;;;5.18;83.31;100184.25;5049836;27;102670;-66
2022/01/17 05:56:08;;;;;;;10.20;9.17;;;;;;;5.03;83.66;100186.41;5029508;27;103100;-65
2022/01/17 05:58:36;;;;;;;9.18;8.35;;;;;;;5.17;83.95;100177.28;5046957;27;103994;-65
2022/01/17 06:01:05;;;;;;;9.05;8.15;;;;;;;5.27;82.68;100180.53;5035693;27;103106;-66
2022/01/17 06:03:33;;;;;;;9.88;8.93;;;;;;;5.15;83.26;100183.47;5032375;27;102718;-65
2022/01/17 06:06:03;;;;;;;10.15;9.15;;;;;;;5.07;83.75;100191.53;5044867;27;103856;-66
2022/01/17 06:08:34;;;;;;;9.35;8.45;;;;;;;5.26;83.40;100187.53;5041910;27;103310;-66
2022/01/17 06:11:05;;;;;;;7.78;7.00;;;;;;;5.53;82.69;100201.59;5039314;27;103321;-65
2022/01/17 06:13:33;;;;;;;8.80;7.90;;;;;;;5.21;83.53;100191.16;5029864;27;102873;-66
2022/01/17 06:16:05;;;;;;;7.65;6.95;;;;;;;5.50;83.06;100198.22;5043101;27;102805;-66
2022/01/17 06:18:33;;;;;;;8.47;7.67;;;;;;;5.35;82.91;100198.66;5044657;27;103286;-66
2022/01/17 06:21:04;;;;;;;8.82;8.02;;;;;;;5.35;83.43;100198.66;5041215;27;103491;-66
2022/01/17 06:23:32;;;;;;;8.65;7.85;;;;;;;5.59;82.46;100216.31;5043181;27;103147;-64
2022/01/17 06:26:00;;;;;;;9.87;8.97;;;;;;;5.21;83.58;100209.50;5045354;27;104072;-66
2022/01/17 06:28:29;;;;;;;10.38;9.38;;;;;;;5.18;83.49;100213.06;5049362;27;104012;-67
2022/01/17 06:31:00;;;;;;;9.07;8.18;;;;;;;5.43;83.69;100209.78;5045763;27;103575;-66
2022/01/17 06:33:29;;;;;;;9.48;8.68;;;;;;;5.49;83.14;100213.09;5049952;27;102881;-65
2022/01/17 06:35:58;;;;;;;8.20;7.40;;;;;;;5.53;82.80;100216.50;5046686;27;102721;-66
2022/01/17 06:38:26;;;;;;;9.45;8.55;;;;;;;5.21;82.67;100220.00;5048831;27;103312;-66
2022/01/17 06:40:54;;;;;;;8.98;8.13;;;;;;;5.36;83.21;100223.97;5028414;27;104101;-66
2022/01/17 06:43:22;;;;;;;8.30;7.60;;;;;;;5.40;82.98;100230.81;5052285;27;103181;-65
2022/01/17 06:45:50;;;;;;;7.85;7.05;;;;;;;5.51;82.85;100247.13;5027449;27;102901;-66
2022/01/17 06:48:18;;;;;;;7.75;7.05;;;;;;;5.57;82.53;100249.59;5050231;27;103398;-66
2022/01/17 06:50:47;;;;;;;7.80;7.10;;;;;;;5.50;82.62;100254.13;5041413;27;103238;-64
2022/01/17 06:53:16;;;;;;;6.88;6.28;;;;;;;5.72;82.31;100249.16;5044629;27;104097;-66
2022/01/17 06:55:44;;;;;;;7.50;6.90;;;;;;;5.60;82.43;100252.13;5046912;27;102992;-66
2022/01/17 06:58:12;;;;;;;6.00;5.50;;;;;;;5.78;81.64;100236.72;5043812;27;103302;-67
2022/01/17 07:00:41;;;;;;;7.30;6.70;;;;;;;5.76;80.87;100235.03;5044460;27;103227;-65
2022/01/17 07:03:10;;;;;;;7.63;6.93;;;;;;;5.60;81.18;100250.38;5048574;27;103035;-66
2022/01/17 07:05:38;;;;;;;7.47;6.80;;;;;;;5.48;81.81;100247.19;5024593;27;104078;-65
2022/01/17 07:08:08;;;;;;;8.57;7.80;;;;;;;4.68;85.29;100263.25;5047994;27;104243;-65
2022/01/17 07:10:36;;;;;;;7.63;6.97;;;;;;;5.13;84.79;100275.22;5041865;27;103209;-65
2022/01/17 07:13:06;;;;;;;7.03;6.43;;;;;;;5.41;83.41;100285.84;5041954;27;102820;-63
2022/01/17 07:15:38;;;;;;;7.20;6.60;;;;;;;5.67;82.11;100272.88;5033063;27;102862;-63
2022/01/17 07:18:07;;;;;;;7.45;6.85;;;;;;;5.78;81.43;100275.22;5049688;27;103941;-66
2022/01/17 07:20:35;;;;;;;7.10;6.50;;;;;;;5.68;81.92;100290.34;5033654;27;104192;-65
2022/01/17 07:23:03;;;;;;;6.65;6.13;;;;;;;5.87;81.23;100288.09;5042759;27;102736;-63
2022/01/17 07:25:32;;;;;;;6.30;5.80;;;;;;;5.97;80.79;100292.19;5040926;27;103639;-63
2022/01/17 07:28:00;;;;;;;7.10;6.40;;;;;;;6.01;80.42;100304.28;5034692;27;104002;-63
2022/01/17 07:30:29;;;;;;;6.43;5.82;;;;;;;6.07;80.27;100304.13;5046879;27;103215;-63
2022/01/17 07:32:57;;;;;;;7.63;6.93;;;;;;;5.93;80.57;100311.53;5031330;27;102772;-63
2022/01/17 07:35:25;;;;;;;8.40;7.60;;;;;;;5.68;82.01;100290.34;5049344;27;104272;-63
2022/01/17 07:37:53;;;;;;;6.95;6.40;;;;;;;5.88;81.48;100281.94;5030816;27;104186;-63
2022/01/17 07:40:21;;;;;;;7.70;7.10;;;;;;;5.76;82.37;100292.75;5046946;27;103286;-63
2022/01/17 07:42:51;;;;;;;7.43;6.80;;;;;;;5.61;82.99;100287.94;5050352;27;103262;-63
2022/01/17 07:45:20;;;;;;;7.90;7.10;;;;;;;5.62;82.48;100290.50;5029448;27;104182;-63
2022/01/17 07:48:09;;;;;;;7.80;7.10;;;;;;;5.61;83.28;100298.44;5026699;27;103419;-63
2022/01/17 07:50:37;;;;;;;6.70;6.10;;;;;;;5.95;82.27;100299.22;5033684;27;104212;-63
2022/01/17 07:53:06;;;;;;;6.15;5.65;;;;;;;5.95;82.33;100309.72;5053041;27;102694;-66
2022/01/17 07:55:34;;;;;;;6.97;6.38;;;;;;;5.85;82.29;100308.25;5050440;27;103028;-66
2022/01/17 07:58:04;;;;;;;6.57;5.97;;;;;;;6.05;81.63;100316.44;5043051;27;103662;-66
2022/01/17 08:00:32;;;;;;;6.30;5.70;;;;;;;5.97;82.00;100314.94;5030163;27;104309;-66
2022/01/17 08:03:02;;;;;;;7.00;6.30;;;;;;;5.76;81.03;100318.97;5054719;27;102592;-66
2022/01/17 08:05:30;;;;;;;6.25;5.68;;;;;;;6.01;81.45;100306.91;5030188;27;102723;-65
2022/01/17 08:07:58;;;;;;;6.25;5.70;;;;;;;6.07;80.59;100314.63;5032972;27;104193;-66
2022/01/17 08:10:27;;;;;;;6.23;5.73;;;;;;;6.09;80.56;100318.06;5045468;27;103228;-65
2022/01/17 08:12:55;;;;;;;6.55;5.95;;;;;;;5.91;81.96;100317.72;5042873;27;102662;-66
2022/01/17 08:15:25;;;;;;;6.00;5.40;;;;;;;5.97;81.61;100307.94;5052399;27;104012;-66
2022/01/17 08:17:54;;;;;;;4.90;4.40;;;;;;;6.25;80.38;100310.63;5029315;27;104891;-66
2022/01/17 08:20:22;;;;;;;5.75;5.25;;;;;;;6.21;80.77;100306.34;5055082;27;103403;-65
2022/01/17 08:22:51;;;;;;;5.30;4.80;;;;;;;6.23;80.73;100300.16;5048167;27;102671;-66
2022/01/17 08:25:19;;;;;;;6.20;5.65;;;;;;;5.81;81.81;100290.88;5026921;27;103808;-64
2022/01/17 08:27:47;;;;;;;5.53;5.03;;;;;;;5.71;82.83;100285.00;5049336;27;103655;-63
2022/01/17 08:30:16;;;;;;;5.43;4.93;;;;;;;5.80;81.51;100299.63;5051519;27;103703;-63
2022/01/17 08:33:05;;;;;;;5.25;4.75;;;;;;;5.69;82.16;100301.69;5043200;27;102794;-62
2022/01/17 08:35:33;;;;;;;5.05;4.65;;;;;;;6.05;81.02;100305.06;5043596;27;102849;-63
2022/01/17 08:38:01;;;;;;;5.10;4.70;;;;;;;6.15;80.73;100296.88;5042827;27;103009;-63
2022/01/17 08:40:30;;;;;;;5.22;4.82;;;;;;;6.43;79.33;100287.28;5028250;27;102982;-63
2022/01/17 08:42:58;;;;;;;4.97;4.57;;;;;;;5.96;80.67;100279.97;5052631;27;103349;-63
2022/01/17 08:45:27;;;;;;;5.10;4.60;;;;;;;6.11;80.23;100291.78;5045593;27;102557;-64
2022/01/17 08:48:13;;;;;;;5.20;4.63;;;;;;;6.36;79.76;100291.00;5052143;27;104033;-62
2022/01/17 08:50:43;;;;;;;4.85;4.45;;;;;;;6.58;78.77;100279.84;5052355;27;103181;-62
2022/01/17 08:53:13;;;;;;;5.50;5.00;;;;;;;6.16;79.94;100292.50;5031127;27;102899;-63
2022/01/17 08:55:42;;;;;;;5.30;4.80;;;;;;;6.08;80.26;100300.59;5052832;27;103541;-63
2022/01/17 08:58:12;;;;;;;5.30;4.88;;;;;;;6.16;79.43;100308.25;5053165;27;103336;-62
2022/01/17 09:00:41;;;;;;;5.33;4.83;;;;;;;6.45;79.08;100305.63;5056485;27;103005;-62
2022/01/17 09:03:22;;;;;;;5.13;4.37;;;;;;;5.47;82.66;100305.81;5050819;27;102937;-63
2022/01/17 09:05:51;;;;;;;4.00;3.60;;;;;;;5.73;82.98;100305.94;5055682;27;102922;-63
2022/01/17 09:08:19;;;;;;;5.37;3.90;;;;;;;5.45;82.64;100316.31;5057426;27;103326;-62
2022/01/17 09:10:48;;;;;;;4.37;3.43;;;;;;;5.76;82.06;100318.97;5053702;27;103201;-66
2022/01/17 09:13:17;;;;;;;4.00;3.53;;;;;;;5.75;82.00;100327.75;5056921;27;102520;-66
2022/01/17 09:15:46;;;;;;;3.47;3.17;;;;;;;5.79;82.01;100329.38;5051263;27;102663;-66
2022/01/17 09:18:15;;;;;;;4.23;3.87;;;;;;;5.86;81.65;100319.63;5047580;27;104012;-66
2022/01/17 09:20:45;;;;;;;3.20;2.80;;;;;;;6.15;81.31;100307.38;5054402;27;103155;-63
2022/01/17 09:23:13;;;;;;;4.10;3.80;;;;;;;6.14;80.86;100305.69;5052405;27;102691;-63
2022/01/17 09:25:41;;;;;;;3.60;3.27;;;;;;;6.10;80.94;100311.91;5051001;27;102649;-63
2022/01/17 09:28:10;;;;;;;5.63;4.37;;;;;;;5.88;81.31;100318.69;5026901;27;104019;-62
2022/01/17 09:30:38;;;;;;;4.57;4.17;;;;;;;6.07;81.40;100333.00;5051342;27;103193;-65
2022/01/17 09:33:06;;;;;;;7.13;4.53;;;;;;;5.83;81.24;100352.88;5060348;27;102677;-63
2022/01/17 09:35:35;;;;;;;4.40;3.80;;;;;;;5.99;82.02;100355.97;5056856;27;104128;-62
2022/01/17 09:38:06;;;;;;;5.50;4.33;;;;;;;6.22;81.65;100365.81;5047041;27;104098;-62
2022/01/17 09:40:34;;;;;;;5.17;4.50;;;;;;;6.09;80.98;100370.53;5043107;27;103217;-62
2022/01/17 09:43:22;;;;;;;6.10;4.57;;;;;;;5.91;81.23;100373.69;5047553;27;102670;-65
2022/01/17 09:45:50;;;;;;;6.07;5.47;;;;;;;5.89;81.44;100388.63;5057591;27;102596;-62
2022/01/17 09:48:22;;;;;;;7.90;6.33;;;;;;;5.73;82.27;100374.13;5055010;27;104056;-63
2022/01/17 09:51:02;;;;;;;6.87;5.83;;;;;;;5.71;83.05;100368.06;5049476;27;103216;-62
2022/01/17 09:53:38;;;;;;;6.47;5.87;;;;;;;5.65;82.96;100389.22;5042728;27;102750;-62
2022/01/17 09:56:08;;;;;;;6.87;6.17;;;;;;;5.55;83.61;100382.50;5044320;27;102717;-66
2022/01/17 09:58:37;;;;;;;6.67;5.90;;;;;;;5.44;84.19;100388.00;5030719;27;103793;-65
2022/01/17 10:01:06;;;;;;;7.00;6.30;;;;;;;5.32;84.21;100401.41;5037716;27;103253;-64
2022/01/17 10:03:39;;;;;;;8.57;7.67;;;;;;;5.35;84.93;100389.97;5046216;27;103213;-66
2022/01/17 10:06:07;;;;;;;7.40;6.70;;;;;;;5.34;85.93;100393.50;5050396;27;102629;-66
2022/01/17 10:08:39;;;;;;;8.00;6.50;;;;;;;5.52;85.25;100398.28;5056766;27;103570;-66
2022/01/17 10:11:14;;;;;;;7.17;6.30;;;;;;;5.56;85.08;100394.69;5035484;27;103920;-63
2022/01/17 10:13:45;;;;;;;7.13;6.10;;;;;;;5.73;85.55;100384.63;5032537;27;102975;-63
2022/01/17 10:16:15;;;;;;;7.20;5.80;;;;;;;5.50;83.87;100400.09;5045023;27;102695;-63
2022/01/17 10:18:48;;;;;;;7.67;6.87;;;;;;;5.23;85.59;100401.63;5026698;27;104756;-63
2022/01/17 10:21:29;;;;;;;8.23;7.40;;;;;;;5.20;85.35;100380.72;5050114;27;103191;-63
2022/01/17 10:35:22;;;;;;;8.27;6.03;;;;;;;5.60;84.94;100383.22;5046984;27;102551;-63
2022/01/17 10:38:02;;;;;;;5.50;5.00;;;;;;;5.58;85.00;100377.16;5048232;27;103816;-63
2022/01/17 10:40:34;;;;;;;6.43;5.77;;;;;;;5.71;84.52;100394.28;5054902;27;104911;-63
2022/01/17 10:43:05;;;;;;;6.70;5.73;;;;;;;5.45;85.32;100405.44;5049700;27;103253;-63
2022/01/17 10:45:40;;;;;;;6.27;5.67;;;;;;;5.17;86.22;100410.50;5044123;27;102724;-63
2022/01/17 10:48:09;;;;;;;7.00;6.13;;;;;;;4.88;86.70;100415.56;5041931;27;102795;-63
2022/01/17 10:50:39;;;;;;;7.00;5.90;;;;;;;5.05;87.77;100412.56;5028773;27;103222;-63
2022/01/17 10:53:09;;;;;;;7.13;6.43;;;;;;;5.30;86.54;100413.69;5055765;27;102940;-63
2022/01/17 10:55:42;;;;;;;6.60;5.83;;;;;;;5.01;87.26;100411.75;5041661;27;102685;-63
2022/01/17 10:58:12;;;;;;;6.37;5.63;;;;;;;4.86;88.10;100416.47;5046965;27;102625;-63
2022/01/17 11:00:42;;;;;;;6.67;5.97;;;;;;;5.11;87.01;100413.25;5041731;27;105507;-66
2022/01/17 11:03:14;;;;;;;6.43;5.63;;;;;;;5.01;87.73;100411.75;5049832;27;103334;-63
2022/01/17 11:05:45;;;;;;;6.63;6.03;;;;;;;4.71;88.98;100422.91;5054928;27;102709;-63
2022/01/17 11:08:17;;;;;;;10.73;6.40;;;;;;;4.85;88.74;100426.09;5056105;27;103659;-63
2022/01/17 11:10:50;;;;;;;6.33;5.20;;;;;;;5.14;87.23;100423.66;5057758;27;103197;-64
2022/01/17 11:13:19;;;;;;;8.47;5.73;;;;;;;4.86;88.26;100419.06;5053886;27;103231;-64
2022/01/17 11:15:52;;;;;;;6.13;5.53;;;;;;;4.99;87.23;100418.78;5056234;27;103694;-64
2022/01/17 11:18:26;;;;;;;6.57;5.60;;;;;;;4.90;88.04;100408.50;5049510;27;103499;-64
2022/01/17 11:20:56;;;;;;;6.33;5.70;;;;;;;4.83;88.34;100424.41;5063127;27;103219;-63
2022/01/17 11:23:24;;;;;;;5.50;5.00;;;;;;;4.92;87.82;100421.56;5054218;27;102977;-63
2022/01/17 11:25:56;;;;;;;5.73;5.10;;;;;;;4.68;88.56;100418.59;5061952;27;102675;-63
2022/01/17 11:28:27;;;;;;;4.97;4.57;;;;;;;4.90;88.54;100433.84;5046203;27;102705;-64
2022/01/17 11:31:06;;;;;;;6.50;5.43;;;;;;;4.91;88.51;100431.16;5027114;27;104362;-66
2022/01/17 11:33:35;;;;;;;5.67;4.77;;;;;;;4.80;89.21;100433.16;5026984;27;103487;-66
2022/01/17 11:36:04;;;;;;;5.70;5.10;;;;;;;4.99;88.70;100438.88;5024945;27;103173;-67
2022/01/17 11:38:36;;;;;;;6.13;5.33;;;;;;;5.13;88.05;100427.19;5032531;27;102859;-64
2022/01/17 11:41:07;;;;;;;4.70;4.30;;;;;;;5.22;87.79;100419.09;5041524;27;103290;-65
2022/01/17 11:43:37;;;;;;;8.37;5.27;;;;;;;5.46;86.24;100416.78;5043026;27;103298;-64
2022/01/17 11:46:26;;;;;;;5.27;4.77;;;;;;;5.53;86.09;100407.91;5033501;27;102773;-67
2022/01/17 11:48:59;;;;;;;5.33;4.60;;;;;;;5.39;85.88;100410.00;5051613;27;102708;-67
2022/01/17 11:51:39;;;;;;;5.87;5.27;;;;;;;5.51;86.42;100401.81;5034470;27;103831;-67